sensor_id;sensor_type;location;lat;lon;timestamp;temperature;humidity
29817;DHT22;16805;52.956;5.906;2023-07-31T00:01:18;17.90;99.90
29817;DHT22;16805;52.956;5.906;2023-07-31T00:03:45;17.90;99.90
29817;DHT22;16805;52.956;5.906;2023-07-31T00:06:11;17.90;99.90
29817;DHT22;16805;52.956;5.906;2023-07-31T00:08:37;17.80;99.90
29817;DHT22;16805;52.956;5.906;2023-07-31T00:11:02;17.80;99.90
29817;DHT22;16805;52.956;5.906;2023-07-31T00:13:28;17.80;99.90
29817;DHT22;16805;52.956;5.906;2023-07-31T00:15:54;17.80;99.90
29817;DHT22;16805;52.956;5.906;2023-07-31T00:18:19;17.80;99.90
29817;DHT22;16805;52.956;5.906;2023-07-31T00:20:45;17.70;99.90
29817;DHT22;16805;52.956;5.906;2023-07-31T00:23:11;17.70;99.90
29817;DHT22;16805;52.956;5.906;2023-07-31T00:25:36;17.70;99.90
29817;DHT22;16805;52.956;5.906;2023-07-31T00:28:02;17.70;99.90
29817;DHT22;16805;52.956;5.906;2023-07-31T00:30:28;17.70;99.90
29817;DHT22;16805;52.956;5.906;2023-07-31T00:32:54;17.70;99.90
29817;DHT22;16805;52.956;5.906;2023-07-31T00:35:19;17.70;99.90
29817;DHT22;16805;52.956;5.906;2023-07-31T00:37:45;17.60;99.90
29817;DHT22;16805;52.956;5.906;2023-07-31T00:40:11;17.60;99.90
29817;DHT22;16805;52.956;5.906;2023-07-31T00:42:36;17.60;99.90
29817;DHT22;16805;52.956;5.906;2023-07-31T00:45:02;17.60;99.90
29817;DHT22;16805;52.956;5.906;2023-07-31T00:47:28;17.60;99.90
29817;DHT22;16805;52.956;5.906;2023-07-31T00:49:54;17.60;99.90
29817;DHT22;16805;52.956;5.906;2023-07-31T00:52:20;17.50;99.90
29817;DHT22;16805;52.956;5.906;2023-07-31T00:54:46;17.60;99.90
29817;DHT22;16805;52.956;5.906;2023-07-31T00:57:12;17.60;99.90
29817;DHT22;16805;52.956;5.906;2023-07-31T00:59:38;17.50;99.90
29817;DHT22;16805;52.956;5.906;2023-07-31T01:02:04;17.50;99.90
29817;DHT22;16805;52.956;5.906;2023-07-31T01:04:30;17.50;99.90
29817;DHT22;16805;52.956;5.906;2023-07-31T01:06:58;17.50;99.90
29817;DHT22;16805;52.956;5.906;2023-07-31T01:12:07;17.50;99.90
29817;DHT22;16805;52.956;5.906;2023-07-31T01:14:33;17.50;99.90
29817;DHT22;16805;52.956;5.906;2023-07-31T01:16:58;17.50;99.90
29817;DHT22;16805;52.956;5.906;2023-07-31T01:19:26;17.50;99.90
29817;DHT22;16805;52.956;5.906;2023-07-31T01:22:23;17.50;99.90
29817;DHT22;16805;52.956;5.906;2023-07-31T01:27:58;17.70;99.90
29817;DHT22;16805;52.956;5.906;2023-07-31T01:30:29;17.70;99.90
29817;DHT22;16805;52.956;5.906;2023-07-31T01:32:59;17.70;99.90
29817;DHT22;16805;52.956;5.906;2023-07-31T01:35:27;17.70;99.90
29817;DHT22;16805;52.956;5.906;2023-07-31T01:37:53;17.70;99.90
29817;DHT22;16805;52.956;5.906;2023-07-31T01:40:19;17.70;99.90
29817;DHT22;16805;52.956;5.906;2023-07-31T01:42:45;17.70;99.90
29817;DHT22;16805;52.956;5.906;2023-07-31T01:45:11;17.70;99.90
29817;DHT22;16805;52.956;5.906;2023-07-31T01:47:37;17.70;99.90
29817;DHT22;16805;52.956;5.906;2023-07-31T01:50:03;17.70;99.90
29817;DHT22;16805;52.956;5.906;2023-07-31T01:52:29;17.70;99.90
29817;DHT22;16805;52.956;5.906;2023-07-31T01:54:55;17.70;99.90
29817;DHT22;16805;52.956;5.906;2023-07-31T01:57:21;17.60;99.90
29817;DHT22;16805;52.956;5.906;2023-07-31T01:59:47;17.60;99.90
29817;DHT22;16805;52.956;5.906;2023-07-31T02:02:13;17.60;99.90
29817;DHT22;16805;52.956;5.906;2023-07-31T02:04:38;17.60;99.90
29817;DHT22;16805;52.956;5.906;2023-07-31T02:07:06;17.60;99.90
29817;DHT22;16805;52.956;5.906;2023-07-31T02:09:32;17.60;99.90
29817;DHT22;16805;52.956;5.906;2023-07-31T02:11:57;17.60;99.90
29817;DHT22;16805;52.956;5.906;2023-07-31T02:14:23;17.50;99.90
29817;DHT22;16805;52.956;5.906;2023-07-31T02:16:50;17.50;99.90
29817;DHT22;16805;52.956;5.906;2023-07-31T02:19:15;17.50;99.90
29817;DHT22;16805;52.956;5.906;2023-07-31T02:21:41;17.50;99.90
29817;DHT22;16805;52.956;5.906;2023-07-31T02:24:07;17.50;99.90
29817;DHT22;16805;52.956;5.906;2023-07-31T02:26:32;17.50;99.90
29817;DHT22;16805;52.956;5.906;2023-07-31T02:28:58;17.40;99.90
29817;DHT22;16805;52.956;5.906;2023-07-31T02:31:24;17.40;99.90
29817;DHT22;16805;52.956;5.906;2023-07-31T02:33:49;17.40;99.90
29817;DHT22;16805;52.956;5.906;2023-07-31T02:36:15;17.40;99.90
29817;DHT22;16805;52.956;5.906;2023-07-31T02:38:41;17.40;99.90
29817;DHT22;16805;52.956;5.906;2023-07-31T02:41:07;17.40;99.90
29817;DHT22;16805;52.956;5.906;2023-07-31T02:43:32;17.30;99.90
29817;DHT22;16805;52.956;5.906;2023-07-31T02:45:59;17.30;99.90
29817;DHT22;16805;52.956;5.906;2023-07-31T02:48:25;17.30;99.90
29817;DHT22;16805;52.956;5.906;2023-07-31T02:50:51;17.30;99.90
29817;DHT22;16805;52.956;5.906;2023-07-31T02:53:19;17.30;99.90
29817;DHT22;16805;52.956;5.906;2023-07-31T02:55:44;17.30;99.90
29817;DHT22;16805;52.956;5.906;2023-07-31T02:58:10;17.20;99.90
29817;DHT22;16805;52.956;5.906;2023-07-31T03:00:35;17.20;99.90
29817;DHT22;16805;52.956;5.906;2023-07-31T03:03:01;17.20;99.90
29817;DHT22;16805;52.956;5.906;2023-07-31T03:05:27;17.20;99.90
29817;DHT22;16805;52.956;5.906;2023-07-31T03:07:52;17.30;99.90
29817;DHT22;16805;52.956;5.906;2023-07-31T03:10:18;17.20;99.90
29817;DHT22;16805;52.956;5.906;2023-07-31T03:12:47;17.30;99.90
29817;DHT22;16805;52.956;5.906;2023-07-31T03:15:14;17.30;99.90
29817;DHT22;16805;52.956;5.906;2023-07-31T03:17:39;17.30;99.90
29817;DHT22;16805;52.956;5.906;2023-07-31T03:20:06;17.30;99.90
29817;DHT22;16805;52.956;5.906;2023-07-31T03:22:31;17.30;99.90
29817;DHT22;16805;52.956;5.906;2023-07-31T03:24:57;17.30;99.90
29817;DHT22;16805;52.956;5.906;2023-07-31T03:27:23;17.40;99.90
29817;DHT22;16805;52.956;5.906;2023-07-31T03:29:48;17.40;99.90
29817;DHT22;16805;52.956;5.906;2023-07-31T03:32:16;17.40;99.90
29817;DHT22;16805;52.956;5.906;2023-07-31T03:34:42;17.40;99.90
29817;DHT22;16805;52.956;5.906;2023-07-31T03:37:09;17.40;99.90
29817;DHT22;16805;52.956;5.906;2023-07-31T03:39:35;17.40;99.90
29817;DHT22;16805;52.956;5.906;2023-07-31T03:42:00;17.40;99.90
29817;DHT22;16805;52.956;5.906;2023-07-31T03:44:26;17.40;99.90
29817;DHT22;16805;52.956;5.906;2023-07-31T03:46:52;17.40;99.90
29817;DHT22;16805;52.956;5.906;2023-07-31T03:49:18;17.30;99.90
29817;DHT22;16805;52.956;5.906;2023-07-31T03:51:45;17.30;99.90
29817;DHT22;16805;52.956;5.906;2023-07-31T03:54:10;17.30;99.90
29817;DHT22;16805;52.956;5.906;2023-07-31T03:56:36;17.20;99.90
29817;DHT22;16805;52.956;5.906;2023-07-31T03:59:04;17.20;99.90
29817;DHT22;16805;52.956;5.906;2023-07-31T04:01:30;17.20;99.90
29817;DHT22;16805;52.956;5.906;2023-07-31T04:03:58;17.20;99.90
29817;DHT22;16805;52.956;5.906;2023-07-31T04:06:24;17.20;99.90
29817;DHT22;16805;52.956;5.906;2023-07-31T04:08:49;17.20;99.90
29817;DHT22;16805;52.956;5.906;2023-07-31T04:11:15;17.20;99.90
29817;DHT22;16805;52.956;5.906;2023-07-31T04:13:41;17.20;99.90
29817;DHT22;16805;52.956;5.906;2023-07-31T04:16:07;17.20;99.90
29817;DHT22;16805;52.956;5.906;2023-07-31T04:18:33;17.10;99.90
29817;DHT22;16805;52.956;5.906;2023-07-31T04:20:59;17.10;99.90
29817;DHT22;16805;52.956;5.906;2023-07-31T04:23:27;17.20;99.90
29817;DHT22;16805;52.956;5.906;2023-07-31T04:25:52;17.10;99.90
29817;DHT22;16805;52.956;5.906;2023-07-31T04:28:19;17.10;99.90
29817;DHT22;16805;52.956;5.906;2023-07-31T04:30:45;17.10;99.90
29817;DHT22;16805;52.956;5.906;2023-07-31T04:33:11;17.10;99.90
29817;DHT22;16805;52.956;5.906;2023-07-31T04:35:37;17.10;99.90
29817;DHT22;16805;52.956;5.906;2023-07-31T04:38:02;17.10;99.90
29817;DHT22;16805;52.956;5.906;2023-07-31T04:40:28;17.10;99.90
29817;DHT22;16805;52.956;5.906;2023-07-31T04:42:54;17.10;99.90
29817;DHT22;16805;52.956;5.906;2023-07-31T04:45:20;17.10;99.90
29817;DHT22;16805;52.956;5.906;2023-07-31T04:47:45;17.10;99.90
29817;DHT22;16805;52.956;5.906;2023-07-31T04:50:11;17.10;99.90
29817;DHT22;16805;52.956;5.906;2023-07-31T04:52:37;17.10;99.90
29817;DHT22;16805;52.956;5.906;2023-07-31T04:55:03;17.10;99.90
29817;DHT22;16805;52.956;5.906;2023-07-31T04:57:30;17.10;99.90
29817;DHT22;16805;52.956;5.906;2023-07-31T04:59:56;17.10;99.90
29817;DHT22;16805;52.956;5.906;2023-07-31T05:02:21;17.10;99.90
29817;DHT22;16805;52.956;5.906;2023-07-31T05:04:47;17.20;99.90
29817;DHT22;16805;52.956;5.906;2023-07-31T05:07:13;17.20;99.90
29817;DHT22;16805;52.956;5.906;2023-07-31T05:09:38;17.20;99.90
29817;DHT22;16805;52.956;5.906;2023-07-31T05:12:05;17.20;99.90
29817;DHT22;16805;52.956;5.906;2023-07-31T05:14:31;17.20;99.90
29817;DHT22;16805;52.956;5.906;2023-07-31T05:16:56;17.20;99.90
29817;DHT22;16805;52.956;5.906;2023-07-31T05:19:23;17.20;99.90
29817;DHT22;16805;52.956;5.906;2023-07-31T05:21:50;17.20;99.90
29817;DHT22;16805;52.956;5.906;2023-07-31T05:24:16;17.30;99.90
29817;DHT22;16805;52.956;5.906;2023-07-31T05:26:44;17.30;99.90
29817;DHT22;16805;52.956;5.906;2023-07-31T05:29:10;17.20;99.90
29817;DHT22;16805;52.956;5.906;2023-07-31T05:31:35;17.30;99.90
29817;DHT22;16805;52.956;5.906;2023-07-31T05:34:01;17.30;99.90
29817;DHT22;16805;52.956;5.906;2023-07-31T05:36:27;17.30;99.90
29817;DHT22;16805;52.956;5.906;2023-07-31T05:38:53;17.30;99.90
29817;DHT22;16805;52.956;5.906;2023-07-31T05:41:19;17.40;99.90
29817;DHT22;16805;52.956;5.906;2023-07-31T05:43:44;17.30;99.90
29817;DHT22;16805;52.956;5.906;2023-07-31T05:46:11;17.40;99.90
29817;DHT22;16805;52.956;5.906;2023-07-31T05:48:38;17.40;99.90
29817;DHT22;16805;52.956;5.906;2023-07-31T05:51:04;17.40;99.90
29817;DHT22;16805;52.956;5.906;2023-07-31T05:53:30;17.40;99.90
29817;DHT22;16805;52.956;5.906;2023-07-31T05:55:56;17.50;99.90
29817;DHT22;16805;52.956;5.906;2023-07-31T05:58:23;17.50;99.90
29817;DHT22;16805;52.956;5.906;2023-07-31T06:00:49;17.50;99.90
29817;DHT22;16805;52.956;5.906;2023-07-31T06:03:15;17.50;99.90
29817;DHT22;16805;52.956;5.906;2023-07-31T06:05:40;17.50;99.90
29817;DHT22;16805;52.956;5.906;2023-07-31T06:08:06;17.50;99.90
29817;DHT22;16805;52.956;5.906;2023-07-31T06:10:32;17.50;99.90
29817;DHT22;16805;52.956;5.906;2023-07-31T06:12:58;17.50;99.90
29817;DHT22;16805;52.956;5.906;2023-07-31T06:15:24;17.50;99.90
29817;DHT22;16805;52.956;5.906;2023-07-31T06:17:49;17.50;99.90
29817;DHT22;16805;52.956;5.906;2023-07-31T06:20:15;17.60;99.90
29817;DHT22;16805;52.956;5.906;2023-07-31T06:22:41;17.60;99.90
29817;DHT22;16805;52.956;5.906;2023-07-31T06:25:07;17.60;99.90
29817;DHT22;16805;52.956;5.906;2023-07-31T06:27:33;17.60;99.90
29817;DHT22;16805;52.956;5.906;2023-07-31T06:29:59;17.60;99.90
29817;DHT22;16805;52.956;5.906;2023-07-31T06:32:24;17.60;99.90
29817;DHT22;16805;52.956;5.906;2023-07-31T06:34:50;17.70;99.90
29817;DHT22;16805;52.956;5.906;2023-07-31T06:37:16;17.70;99.90
29817;DHT22;16805;52.956;5.906;2023-07-31T06:39:42;17.70;99.90
29817;DHT22;16805;52.956;5.906;2023-07-31T06:42:07;17.70;99.90
29817;DHT22;16805;52.956;5.906;2023-07-31T06:44:33;17.70;99.90
29817;DHT22;16805;52.956;5.906;2023-07-31T06:46:59;17.70;99.90
29817;DHT22;16805;52.956;5.906;2023-07-31T06:49:26;17.70;99.90
29817;DHT22;16805;52.956;5.906;2023-07-31T06:51:53;17.80;99.90
29817;DHT22;16805;52.956;5.906;2023-07-31T06:54:19;17.80;99.90
29817;DHT22;16805;52.956;5.906;2023-07-31T06:56:45;17.80;99.90
29817;DHT22;16805;52.956;5.906;2023-07-31T06:59:10;17.80;99.90
29817;DHT22;16805;52.956;5.906;2023-07-31T07:01:36;17.80;99.90
29817;DHT22;16805;52.956;5.906;2023-07-31T07:04:03;17.80;99.90
29817;DHT22;16805;52.956;5.906;2023-07-31T07:06:29;17.80;99.90
29817;DHT22;16805;52.956;5.906;2023-07-31T07:08:56;17.80;99.90
29817;DHT22;16805;52.956;5.906;2023-07-31T07:11:21;17.80;99.90
29817;DHT22;16805;52.956;5.906;2023-07-31T07:13:47;17.90;99.90
29817;DHT22;16805;52.956;5.906;2023-07-31T07:16:16;17.90;99.90
29817;DHT22;16805;52.956;5.906;2023-07-31T07:18:41;17.90;99.90
29817;DHT22;16805;52.956;5.906;2023-07-31T07:21:07;17.80;99.90
29817;DHT22;16805;52.956;5.906;2023-07-31T07:23:33;17.90;99.90
29817;DHT22;16805;52.956;5.906;2023-07-31T07:25:59;17.90;99.90
29817;DHT22;16805;52.956;5.906;2023-07-31T07:28:25;17.90;99.90
29817;DHT22;16805;52.956;5.906;2023-07-31T07:30:52;17.80;99.90
29817;DHT22;16805;52.956;5.906;2023-07-31T07:33:19;17.80;99.90
29817;DHT22;16805;52.956;5.906;2023-07-31T07:35:44;17.80;99.90
29817;DHT22;16805;52.956;5.906;2023-07-31T07:38:10;17.80;99.90
29817;DHT22;16805;52.956;5.906;2023-07-31T07:40:39;17.80;99.90
29817;DHT22;16805;52.956;5.906;2023-07-31T07:43:05;17.70;99.90
29817;DHT22;16805;52.956;5.906;2023-07-31T07:45:31;17.70;99.90
29817;DHT22;16805;52.956;5.906;2023-07-31T07:47:57;17.70;99.90
29817;DHT22;16805;52.956;5.906;2023-07-31T07:50:24;17.70;99.90
29817;DHT22;16805;52.956;5.906;2023-07-31T07:52:50;17.70;99.90
29817;DHT22;16805;52.956;5.906;2023-07-31T07:55:16;17.70;99.90
29817;DHT22;16805;52.956;5.906;2023-07-31T07:57:41;17.70;99.90
29817;DHT22;16805;52.956;5.906;2023-07-31T08:00:08;17.70;99.90
29817;DHT22;16805;52.956;5.906;2023-07-31T08:02:35;17.70;99.90
29817;DHT22;16805;52.956;5.906;2023-07-31T08:05:01;17.70;99.90
29817;DHT22;16805;52.956;5.906;2023-07-31T08:07:27;17.70;99.90
29817;DHT22;16805;52.956;5.906;2023-07-31T08:09:53;17.80;99.90
29817;DHT22;16805;52.956;5.906;2023-07-31T08:12:18;17.70;99.90
29817;DHT22;16805;52.956;5.906;2023-07-31T08:14:44;17.80;99.90
29817;DHT22;16805;52.956;5.906;2023-07-31T08:17:10;17.80;99.90
29817;DHT22;16805;52.956;5.906;2023-07-31T08:19:35;17.80;99.90
29817;DHT22;16805;52.956;5.906;2023-07-31T08:22:01;17.80;99.90
29817;DHT22;16805;52.956;5.906;2023-07-31T08:24:27;17.80;99.90
29817;DHT22;16805;52.956;5.906;2023-07-31T08:26:52;17.80;99.90
29817;DHT22;16805;52.956;5.906;2023-07-31T08:29:18;17.80;99.90
29817;DHT22;16805;52.956;5.906;2023-07-31T08:31:44;17.80;99.90
29817;DHT22;16805;52.956;5.906;2023-07-31T08:34:10;17.80;99.90
29817;DHT22;16805;52.956;5.906;2023-07-31T08:36:35;17.80;99.90
29817;DHT22;16805;52.956;5.906;2023-07-31T08:39:01;17.80;99.90
29817;DHT22;16805;52.956;5.906;2023-07-31T08:41:27;17.90;99.90
29817;DHT22;16805;52.956;5.906;2023-07-31T08:43:53;17.90;99.90
29817;DHT22;16805;52.956;5.906;2023-07-31T08:46:21;17.90;99.90
29817;DHT22;16805;52.956;5.906;2023-07-31T08:48:48;17.90;99.90
29817;DHT22;16805;52.956;5.906;2023-07-31T08:51:16;17.90;99.90
29817;DHT22;16805;52.956;5.906;2023-07-31T08:53:42;17.90;99.90
29817;DHT22;16805;52.956;5.906;2023-07-31T08:56:10;17.90;99.90
29817;DHT22;16805;52.956;5.906;2023-07-31T08:58:37;18.00;99.90
29817;DHT22;16805;52.956;5.906;2023-07-31T09:01:04;18.00;99.90
29817;DHT22;16805;52.956;5.906;2023-07-31T09:03:33;18.00;99.90
29817;DHT22;16805;52.956;5.906;2023-07-31T09:05:59;18.10;99.90
29817;DHT22;16805;52.956;5.906;2023-07-31T09:08:26;18.10;99.90
29817;DHT22;16805;52.956;5.906;2023-07-31T09:11:02;18.10;99.90
29817;DHT22;16805;52.956;5.906;2023-07-31T09:13:32;18.10;99.90
29817;DHT22;16805;52.956;5.906;2023-07-31T09:15:58;18.10;99.90
29817;DHT22;16805;52.956;5.906;2023-07-31T09:18:24;18.20;99.90
29817;DHT22;16805;52.956;5.906;2023-07-31T09:21:06;18.20;99.90
29817;DHT22;16805;52.956;5.906;2023-07-31T09:23:45;18.30;99.90
29817;DHT22;16805;52.956;5.906;2023-07-31T09:28:54;18.40;99.90
29817;DHT22;16805;52.956;5.906;2023-07-31T09:31:40;18.40;99.90
29817;DHT22;16805;52.956;5.906;2023-07-31T09:34:06;18.50;99.90
29817;DHT22;16805;52.956;5.906;2023-07-31T09:36:32;18.50;99.90
29817;DHT22;16805;52.956;5.906;2023-07-31T09:39:04;18.60;99.90
29817;DHT22;16805;52.956;5.906;2023-07-31T09:41:41;18.60;99.90
29817;DHT22;16805;52.956;5.906;2023-07-31T09:44:07;18.70;99.90
29817;DHT22;16805;52.956;5.906;2023-07-31T09:46:35;18.70;99.90
29817;DHT22;16805;52.956;5.906;2023-07-31T09:49:09;18.80;99.90
29817;DHT22;16805;52.956;5.906;2023-07-31T09:51:36;18.80;99.90
29817;DHT22;16805;52.956;5.906;2023-07-31T09:54:14;18.80;99.90
29817;DHT22;16805;52.956;5.906;2023-07-31T09:56:47;18.90;99.90
29817;DHT22;16805;52.956;5.906;2023-07-31T09:59:19;18.90;99.90
29817;DHT22;16805;52.956;5.906;2023-07-31T10:01:46;18.90;99.90
29817;DHT22;16805;52.956;5.906;2023-07-31T10:04:13;18.90;99.90
29817;DHT22;16805;52.956;5.906;2023-07-31T10:06:41;18.80;99.90
29817;DHT22;16805;52.956;5.906;2023-07-31T10:09:09;18.90;99.90
29817;DHT22;16805;52.956;5.906;2023-07-31T10:11:47;18.80;99.90
29817;DHT22;16805;52.956;5.906;2023-07-31T10:14:20;18.80;99.90
29817;DHT22;16805;52.956;5.906;2023-07-31T10:16:46;18.90;99.90
29817;DHT22;16805;52.956;5.906;2023-07-31T10:19:12;18.90;99.90
29817;DHT22;16805;52.956;5.906;2023-07-31T10:21:39;19.00;99.90
29817;DHT22;16805;52.956;5.906;2023-07-31T10:24:07;19.00;99.90
29817;DHT22;16805;52.956;5.906;2023-07-31T10:26:35;19.00;99.90
29817;DHT22;16805;52.956;5.906;2023-07-31T10:29:04;19.00;99.90
29817;DHT22;16805;52.956;5.906;2023-07-31T10:31:31;19.00;99.90
29817;DHT22;16805;52.956;5.906;2023-07-31T10:33:58;19.00;99.90
29817;DHT22;16805;52.956;5.906;2023-07-31T10:36:28;19.00;99.90
29817;DHT22;16805;52.956;5.906;2023-07-31T10:38:56;19.00;99.90
29817;DHT22;16805;52.956;5.906;2023-07-31T10:41:31;19.00;99.90
29817;DHT22;16805;52.956;5.906;2023-07-31T10:43:59;19.00;99.90
29817;DHT22;16805;52.956;5.906;2023-07-31T10:46:25;18.90;99.90
29817;DHT22;16805;52.956;5.906;2023-07-31T10:48:58;18.90;99.90
29817;DHT22;16805;52.956;5.906;2023-07-31T10:51:32;18.90;99.90
29817;DHT22;16805;52.956;5.906;2023-07-31T10:54:15;18.80;99.90
29817;DHT22;16805;52.956;5.906;2023-07-31T10:56:46;18.80;99.90
29817;DHT22;16805;52.956;5.906;2023-07-31T10:59:15;18.80;99.90
29817;DHT22;16805;52.956;5.906;2023-07-31T11:01:55;18.90;99.90
29817;DHT22;16805;52.956;5.906;2023-07-31T11:04:28;18.90;99.90
29817;DHT22;16805;52.956;5.906;2023-07-31T11:06:58;19.00;99.90
29817;DHT22;16805;52.956;5.906;2023-07-31T11:09:28;19.00;99.90
29817;DHT22;16805;52.956;5.906;2023-07-31T11:11:55;19.10;99.90
29817;DHT22;16805;52.956;5.906;2023-07-31T11:14:21;19.20;99.90
29817;DHT22;16805;52.956;5.906;2023-07-31T11:16:50;19.20;99.90
29817;DHT22;16805;52.956;5.906;2023-07-31T11:19:22;19.20;99.90
29817;DHT22;16805;52.956;5.906;2023-07-31T11:21:49;19.30;99.90
29817;DHT22;16805;52.956;5.906;2023-07-31T11:24:14;19.30;99.90
29817;DHT22;16805;52.956;5.906;2023-07-31T11:26:51;19.40;99.90
29817;DHT22;16805;52.956;5.906;2023-07-31T11:29:18;19.40;99.90
29817;DHT22;16805;52.956;5.906;2023-07-31T11:31:44;19.50;99.90
29817;DHT22;16805;52.956;5.906;2023-07-31T11:34:10;19.50;99.90
29817;DHT22;16805;52.956;5.906;2023-07-31T11:36:36;19.60;99.90
29817;DHT22;16805;52.956;5.906;2023-07-31T11:39:09;19.60;99.90
29817;DHT22;16805;52.956;5.906;2023-07-31T11:41:35;19.60;99.90
29817;DHT22;16805;52.956;5.906;2023-07-31T11:44:01;19.60;99.90
29817;DHT22;16805;52.956;5.906;2023-07-31T11:46:30;19.70;99.90
29817;DHT22;16805;52.956;5.906;2023-07-31T11:49:00;19.70;99.90
29817;DHT22;16805;52.956;5.906;2023-07-31T11:51:26;19.80;99.90
29817;DHT22;16805;52.956;5.906;2023-07-31T11:53:56;19.80;99.90
29817;DHT22;16805;52.956;5.906;2023-07-31T11:56:23;19.70;99.90
29817;DHT22;16805;52.956;5.906;2023-07-31T11:58:59;19.70;99.90
29817;DHT22;16805;52.956;5.906;2023-07-31T12:01:26;19.60;99.90
29817;DHT22;16805;52.956;5.906;2023-07-31T12:03:53;19.60;99.90
29817;DHT22;16805;52.956;5.906;2023-07-31T12:06:19;19.60;99.90
29817;DHT22;16805;52.956;5.906;2023-07-31T12:08:48;19.50;99.90
29817;DHT22;16805;52.956;5.906;2023-07-31T12:11:14;19.50;99.90
29817;DHT22;16805;52.956;5.906;2023-07-31T12:13:40;19.50;99.90
29817;DHT22;16805;52.956;5.906;2023-07-31T12:16:06;19.50;99.90
29817;DHT22;16805;52.956;5.906;2023-07-31T12:18:37;19.50;99.90
29817;DHT22;16805;52.956;5.906;2023-07-31T12:21:05;19.50;99.90
29817;DHT22;16805;52.956;5.906;2023-07-31T12:23:32;19.50;99.90
29817;DHT22;16805;52.956;5.906;2023-07-31T12:26:08;19.60;99.90
29817;DHT22;16805;52.956;5.906;2023-07-31T12:28:48;19.60;99.90
29817;DHT22;16805;52.956;5.906;2023-07-31T12:31:20;19.60;99.90
29817;DHT22;16805;52.956;5.906;2023-07-31T12:33:47;19.70;99.90
29817;DHT22;16805;52.956;5.906;2023-07-31T12:36:16;19.70;99.90
29817;DHT22;16805;52.956;5.906;2023-07-31T12:38:42;19.70;99.90
29817;DHT22;16805;52.956;5.906;2023-07-31T12:41:08;19.80;99.90
29817;DHT22;16805;52.956;5.906;2023-07-31T12:43:38;19.80;99.90
29817;DHT22;16805;52.956;5.906;2023-07-31T12:46:05;19.80;99.90
29817;DHT22;16805;52.956;5.906;2023-07-31T12:48:31;19.80;99.90
29817;DHT22;16805;52.956;5.906;2023-07-31T12:50:57;19.80;99.90
29817;DHT22;16805;52.956;5.906;2023-07-31T12:53:23;19.80;99.90
29817;DHT22;16805;52.956;5.906;2023-07-31T12:55:48;19.80;99.90
29817;DHT22;16805;52.956;5.906;2023-07-31T12:58:14;19.90;99.90
29817;DHT22;16805;52.956;5.906;2023-07-31T13:00:40;19.90;99.90
29817;DHT22;16805;52.956;5.906;2023-07-31T13:03:06;19.90;99.90
29817;DHT22;16805;52.956;5.906;2023-07-31T13:05:31;19.90;99.90
29817;DHT22;16805;52.956;5.906;2023-07-31T13:07:57;19.90;99.90
29817;DHT22;16805;52.956;5.906;2023-07-31T13:10:23;20.00;99.90
29817;DHT22;16805;52.956;5.906;2023-07-31T13:12:49;20.00;99.90
29817;DHT22;16805;52.956;5.906;2023-07-31T13:15:15;20.00;99.90
29817;DHT22;16805;52.956;5.906;2023-07-31T13:17:41;19.90;99.90
29817;DHT22;16805;52.956;5.906;2023-07-31T13:20:07;19.90;99.90
29817;DHT22;16805;52.956;5.906;2023-07-31T13:22:33;19.90;99.90
29817;DHT22;16805;52.956;5.906;2023-07-31T13:24:59;19.80;99.90
29817;DHT22;16805;52.956;5.906;2023-07-31T13:27:24;19.80;99.90
29817;DHT22;16805;52.956;5.906;2023-07-31T13:29:53;19.80;99.90
29817;DHT22;16805;52.956;5.906;2023-07-31T13:32:20;19.80;99.90
29817;DHT22;16805;52.956;5.906;2023-07-31T13:34:47;19.80;99.90
29817;DHT22;16805;52.956;5.906;2023-07-31T13:37:13;19.80;99.90
29817;DHT22;16805;52.956;5.906;2023-07-31T13:39:39;19.80;99.90
29817;DHT22;16805;52.956;5.906;2023-07-31T13:42:05;19.80;99.90
29817;DHT22;16805;52.956;5.906;2023-07-31T13:44:35;19.80;99.90
29817;DHT22;16805;52.956;5.906;2023-07-31T13:47:01;19.80;99.90
29817;DHT22;16805;52.956;5.906;2023-07-31T13:49:27;19.80;99.90
29817;DHT22;16805;52.956;5.906;2023-07-31T13:51:53;19.80;99.90
29817;DHT22;16805;52.956;5.906;2023-07-31T13:54:18;19.80;99.90
29817;DHT22;16805;52.956;5.906;2023-07-31T13:56:44;19.80;99.90
29817;DHT22;16805;52.956;5.906;2023-07-31T14:04:21;19.90;99.90
29817;DHT22;16805;52.956;5.906;2023-07-31T14:06:46;19.90;99.90
29817;DHT22;16805;52.956;5.906;2023-07-31T14:09:13;19.90;99.90
29817;DHT22;16805;52.956;5.906;2023-07-31T14:11:39;19.90;99.90
29817;DHT22;16805;52.956;5.906;2023-07-31T14:14:05;19.90;99.90
29817;DHT22;16805;52.956;5.906;2023-07-31T14:16:31;19.90;99.90
29817;DHT22;16805;52.956;5.906;2023-07-31T14:18:57;19.90;99.90
29817;DHT22;16805;52.956;5.906;2023-07-31T14:21:25;19.90;99.90
29817;DHT22;16805;52.956;5.906;2023-07-31T14:23:51;19.90;99.90
29817;DHT22;16805;52.956;5.906;2023-07-31T14:26:16;19.90;99.90
29817;DHT22;16805;52.956;5.906;2023-07-31T14:28:42;19.90;99.90
29817;DHT22;16805;52.956;5.906;2023-07-31T14:31:08;19.90;99.90
29817;DHT22;16805;52.956;5.906;2023-07-31T14:33:34;19.90;99.90
29817;DHT22;16805;52.956;5.906;2023-07-31T14:36:00;19.90;99.90
29817;DHT22;16805;52.956;5.906;2023-07-31T14:38:26;19.90;99.90
29817;DHT22;16805;52.956;5.906;2023-07-31T14:40:52;19.90;99.90
29817;DHT22;16805;52.956;5.906;2023-07-31T14:43:17;19.90;99.90
29817;DHT22;16805;52.956;5.906;2023-07-31T14:45:43;19.90;99.90
29817;DHT22;16805;52.956;5.906;2023-07-31T14:48:09;19.90;99.90
29817;DHT22;16805;52.956;5.906;2023-07-31T14:50:35;19.90;99.90
29817;DHT22;16805;52.956;5.906;2023-07-31T14:53:00;19.80;99.90
29817;DHT22;16805;52.956;5.906;2023-07-31T14:55:26;19.80;99.90
29817;DHT22;16805;52.956;5.906;2023-07-31T14:57:52;19.80;99.90
29817;DHT22;16805;52.956;5.906;2023-07-31T15:00:18;19.80;99.90
29817;DHT22;16805;52.956;5.906;2023-07-31T15:02:43;19.80;99.90
29817;DHT22;16805;52.956;5.906;2023-07-31T15:05:09;19.80;99.90
29817;DHT22;16805;52.956;5.906;2023-07-31T15:07:35;19.70;99.90
29817;DHT22;16805;52.956;5.906;2023-07-31T15:10:02;19.70;99.90
29817;DHT22;16805;52.956;5.906;2023-07-31T15:12:28;19.70;99.90
29817;DHT22;16805;52.956;5.906;2023-07-31T15:14:54;19.70;99.90
29817;DHT22;16805;52.956;5.906;2023-07-31T15:17:20;19.70;99.90
29817;DHT22;16805;52.956;5.906;2023-07-31T15:19:45;19.70;99.90
29817;DHT22;16805;52.956;5.906;2023-07-31T15:22:11;19.70;99.90
29817;DHT22;16805;52.956;5.906;2023-07-31T15:24:37;19.70;99.90
29817;DHT22;16805;52.956;5.906;2023-07-31T15:27:03;19.70;99.90
29817;DHT22;16805;52.956;5.906;2023-07-31T15:29:29;19.80;99.90
29817;DHT22;16805;52.956;5.906;2023-07-31T15:31:55;19.80;99.90
29817;DHT22;16805;52.956;5.906;2023-07-31T15:34:21;19.90;99.90
29817;DHT22;16805;52.956;5.906;2023-07-31T15:36:47;19.80;99.90
29817;DHT22;16805;52.956;5.906;2023-07-31T15:39:12;19.90;99.90
29817;DHT22;16805;52.956;5.906;2023-07-31T15:41:39;19.90;99.90